Time;durP1;ratioP1;P1;durP2;ratioP2;P2;SDS_P1;SDS_P2;PMS_P1;PMS_P2;Temp;Humidity;BMP_temperature;BMP_pressure;BME280_temperature;BME280_humidity;BME280_pressure;Samples;Min_cycle;Max_cycle;Signal;HPM_P1;HPM_P2
2023/05/27 00:02:06;;;;;;;12.83;3.90;;;14.30;99.90;;;;;;5017439;28;20296;-71
2023/05/27 00:04:32;;;;;;;12.60;4.47;;;14.20;99.90;;;;;;5006176;28;20213;-73
2023/05/27 00:06:57;;;;;;;15.60;4.63;;;14.20;99.90;;;;;;5006676;28;20220;-70
2023/05/27 00:09:23;;;;;;;13.97;4.20;;;14.20;99.90;;;;;;5013818;28;20243;-71
2023/05/27 00:11:49;;;;;;;13.30;4.27;;;14.20;99.90;;;;;;5026931;28;20797;-71
2023/05/27 00:14:17;;;;;;;14.07;4.43;;;14.10;99.90;;;;;;5032407;28;20247;-71
2023/05/27 00:16:43;;;;;;;11.40;4.03;;;14.10;99.90;;;;;;5034125;28;20243;-70
2023/05/27 00:19:08;;;;;;;11.50;4.20;;;14.10;99.90;;;;;;5024104;28;20252;-73
2023/05/27 00:21:34;;;;;;;13.47;4.73;;;14.10;99.90;;;;;;5028192;28;20244;-71
2023/05/27 00:24:00;;;;;;;13.27;4.03;;;14.10;99.90;;;;;;5027163;28;20189;-70
2023/05/27 00:26:26;;;;;;;12.40;4.23;;;14.00;99.90;;;;;;5030342;28;20230;-70
2023/05/27 00:28:52;;;;;;;11.43;4.20;;;14.00;99.90;;;;;;5023999;28;20302;-71
2023/05/27 00:31:18;;;;;;;16.17;4.43;;;13.90;99.90;;;;;;5024274;28;20232;-71
2023/05/27 00:33:43;;;;;;;18.70;4.10;;;13.90;99.90;;;;;;5025767;28;20418;-72
2023/05/27 00:36:09;;;;;;;14.57;4.90;;;13.90;99.90;;;;;;5009352;28;20222;-73
2023/05/27 00:38:36;;;;;;;13.83;4.60;;;13.90;99.90;;;;;;5031967;28;20202;-74
2023/05/27 00:41:03;;;;;;;8.10;3.93;;;13.80;99.90;;;;;;5021722;28;20200;-72
2023/05/27 00:43:30;;;;;;;11.20;3.97;;;13.90;99.90;;;;;;5023744;28;20582;-70
2023/05/27 00:45:56;;;;;;;8.13;4.20;;;13.80;99.90;;;;;;5027189;28;20262;-70
2023/05/27 00:48:22;;;;;;;10.43;4.50;;;13.80;99.90;;;;;;5024152;28;20660;-73
2023/05/27 00:50:47;;;;;;;12.10;4.20;;;13.70;99.90;;;;;;5025592;28;20780;-70
2023/05/27 00:53:14;;;;;;;13.83;4.50;;;13.70;99.90;;;;;;5023669;28;20661;-73
2023/05/27 00:55:40;;;;;;;13.97;4.57;;;13.70;99.90;;;;;;5024731;28;20703;-70
2023/05/27 00:58:09;;;;;;;14.23;4.50;;;13.70;99.90;;;;;;5024626;28;20217;-70
2023/05/27 01:00:37;;;;;;;14.13;4.20;;;13.70;99.90;;;;;;5030610;23;20256;-72
2023/05/27 01:03:03;;;;;;;12.43;4.13;;;13.70;99.90;;;;;;5014415;28;21104;-70
2023/05/27 01:05:29;;;;;;;16.43;4.50;;;13.70;99.90;;;;;;5027431;28;20218;-72
2023/05/27 01:07:55;;;;;;;14.00;4.47;;;13.70;99.90;;;;;;5035721;28;20204;-72
2023/05/27 01:10:44;;;;;;;10.83;4.00;;;13.60;99.90;;;;;;5031270;28;20683;-69
2023/05/27 01:13:22;;;;;;;11.10;4.13;;;13.60;99.90;;;;;;5009091;28;20737;-72
2023/05/27 01:15:49;;;;;;;15.90;4.90;;;13.60;99.90;;;;;;5034907;28;20215;-72
2023/05/27 01:18:16;;;;;;;15.43;4.40;;;13.50;99.90;;;;;;5039342;28;20231;-72
2023/05/27 01:20:43;;;;;;;12.80;4.63;;;13.50;99.90;;;;;;5033057;28;20718;-71
2023/05/27 01:23:09;;;;;;;17.97;5.03;;;13.40;99.90;;;;;;5015229;28;20710;-69
2023/05/27 01:25:35;;;;;;;11.83;4.30;;;13.40;99.90;;;;;;5008831;28;20208;-72
2023/05/27 01:28:00;;;;;;;11.53;4.53;;;13.50;99.90;;;;;;5013134;28;20216;-69
2023/05/27 01:30:27;;;;;;;11.90;4.83;;;13.50;99.90;;;;;;5030995;28;20224;-72
2023/05/27 01:33:01;;;;;;;13.77;4.93;;;13.50;99.90;;;;;;5032564;28;20180;-72
2023/05/27 01:35:39;;;;;;;16.70;4.77;;;13.40;99.90;;;;;;5012177;28;20204;-72
2023/05/27 01:38:09;;;;;;;15.87;4.30;;;13.40;99.90;;;;;;5028756;28;20299;-71
2023/05/27 01:40:35;;;;;;;14.77;4.80;;;13.30;99.90;;;;;;5009895;28;20273;-71
2023/05/27 01:43:01;;;;;;;10.70;4.10;;;13.30;99.90;;;;;;5030832;28;20236;-70
2023/05/27 01:45:27;;;;;;;12.90;3.90;;;13.30;99.90;;;;;;5026944;28;20293;-70
2023/05/27 01:47:53;;;;;;;11.80;4.43;;;13.30;99.90;;;;;;5031501;28;20180;-72
2023/05/27 01:50:18;;;;;;;10.87;4.10;;;13.20;99.90;;;;;;5040386;28;20274;-71
2023/05/27 01:52:45;;;;;;;12.27;4.40;;;13.20;99.90;;;;;;5010534;28;20208;-70
2023/05/27 01:55:11;;;;;;;13.90;5.37;;;13.20;99.90;;;;;;5015722;28;20616;-71
2023/05/27 01:57:37;;;;;;;15.20;4.70;;;13.20;99.90;;;;;;5015739;28;20216;-72
2023/05/27 02:00:05;;;;;;;17.10;4.30;;;13.20;99.90;;;;;;5036049;28;20272;-71
2023/05/27 02:02:31;;;;;;;12.60;4.43;;;13.20;99.90;;;;;;5013168;28;20207;-71
2023/05/27 02:04:57;;;;;;;13.50;4.47;;;13.10;99.90;;;;;;5033278;28;20607;-71
2023/05/27 02:07:22;;;;;;;10.10;4.60;;;13.10;99.90;;;;;;5033938;28;20696;-69
2023/05/27 02:09:48;;;;;;;14.07;4.50;;;13.10;99.90;;;;;;5030312;28;20219;-72
2023/05/27 02:12:14;;;;;;;13.63;4.70;;;13.10;99.90;;;;;;5032113;28;20177;-71
2023/05/27 02:14:40;;;;;;;14.10;4.43;;;13.00;99.90;;;;;;5030556;28;20206;-68
2023/05/27 02:17:07;;;;;;;15.87;5.13;;;13.00;99.90;;;;;;5005036;28;20208;-71
2023/05/27 02:19:33;;;;;;;14.23;5.03;;;13.00;99.90;;;;;;5025017;28;20290;-71
2023/05/27 02:21:59;;;;;;;12.23;4.57;;;12.90;99.90;;;;;;5030435;28;20227;-70
2023/05/27 02:24:24;;;;;;;12.77;4.53;;;12.90;99.90;;;;;;5029380;28;20485;-71
2023/05/27 02:26:50;;;;;;;15.00;5.13;;;12.80;99.90;;;;;;5030613;28;20180;-71
2023/05/27 02:29:15;;;;;;;14.63;4.30;;;12.90;99.90;;;;;;5011795;28;20204;-70
2023/05/27 02:31:41;;;;;;;13.87;4.43;;;12.90;99.90;;;;;;5030121;28;20761;-72
2023/05/27 02:34:06;;;;;;;11.50;4.37;;;12.80;99.90;;;;;;5028888;28;20208;-66
2023/05/27 02:36:33;;;;;;;13.03;5.00;;;12.80;99.90;;;;;;5006846;28;20745;-70
2023/05/27 02:38:59;;;;;;;13.87;4.77;;;12.80;99.90;;;;;;5030487;28;20223;-68
2023/05/27 02:41:24;;;;;;;12.20;4.97;;;12.70;99.90;;;;;;5029565;28;20216;-71
2023/05/27 02:43:50;;;;;;;15.20;4.60;;;12.80;99.90;;;;;;5011356;28;20208;-70
2023/05/27 02:46:16;;;;;;;13.13;5.17;;;12.70;99.90;;;;;;5007229;28;20736;-70
2023/05/27 02:48:41;;;;;;;16.43;4.70;;;12.70;99.90;;;;;;5011830;28;20243;-70
2023/05/27 02:51:07;;;;;;;15.47;4.63;;;12.70;99.90;;;;;;5029468;28;20568;-71
2023/05/27 02:53:32;;;;;;;13.73;4.80;;;12.60;99.90;;;;;;5011889;28;20173;-70
2023/05/27 02:55:58;;;;;;;16.00;5.20;;;12.60;99.90;;;;;;5012035;28;20266;-70
2023/05/27 02:58:24;;;;;;;20.10;5.30;;;12.70;99.90;;;;;;5011652;28;20588;-71
2023/05/27 03:00:49;;;;;;;12.23;5.13;;;12.70;99.90;;;;;;5011563;28;20247;-69
2023/05/27 03:03:15;;;;;;;15.50;5.50;;;12.70;99.90;;;;;;5029090;28;20215;-70
2023/05/27 03:05:41;;;;;;;16.83;4.87;;;12.70;99.90;;;;;;5011619;28;20643;-69
2023/05/27 03:08:06;;;;;;;18.23;5.57;;;12.70;99.90;;;;;;5011514;28;20299;-68
2023/05/27 03:10:33;;;;;;;9.50;4.90;;;12.70;99.90;;;;;;5029586;28;20354;-70
2023/05/27 03:12:58;;;;;;;18.33;5.40;;;12.70;99.90;;;;;;5011289;28;20227;-69
2023/05/27 03:15:24;;;;;;;15.87;5.37;;;12.70;99.90;;;;;;5029190;28;20180;-69
2023/05/27 03:17:50;;;;;;;14.17;4.80;;;12.80;99.90;;;;;;5008308;28;20599;-70
2023/05/27 03:20:18;;;;;;;15.10;4.53;;;12.80;99.90;;;;;;5028797;28;20208;-70
2023/05/27 03:22:44;;;;;;;13.97;5.03;;;12.80;99.90;;;;;;5029135;28;20204;-70
2023/05/27 03:25:10;;;;;;;12.80;4.63;;;12.80;99.90;;;;;;5028903;28;20204;-71
2023/05/27 03:27:35;;;;;;;10.97;4.73;;;12.90;99.90;;;;;;5029562;28;20204;-71
2023/05/27 03:30:04;;;;;;;12.00;4.83;;;12.90;99.90;;;;;;5030152;28;20269;-68
2023/05/27 03:32:29;;;;;;;15.17;5.67;;;13.00;99.90;;;;;;5029164;28;20212;-68
2023/05/27 03:34:55;;;;;;;9.40;4.53;;;13.10;99.90;;;;;;5028932;28;20350;-71
2023/05/27 03:37:20;;;;;;;11.13;4.70;;;13.20;99.90;;;;;;5029165;28;20646;-67
2023/05/27 03:39:46;;;;;;;12.17;4.63;;;13.40;99.90;;;;;;5029101;28;20216;-70
2023/05/27 03:42:12;;;;;;;12.35;5.10;;;13.70;99.90;;;;;;5032498;28;20188;-68
2023/05/27 03:44:37;;;;;;;13.77;4.63;;;13.90;99.90;;;;;;5033317;28;20188;-72
2023/05/27 03:47:03;;;;;;;13.95;4.75;;;14.20;99.90;;;;;;5033393;28;20204;-70
2023/05/27 03:49:29;;;;;;;11.50;4.70;;;14.30;99.90;;;;;;5032230;28;20600;-71
2023/05/27 03:51:55;;;;;;;12.30;4.57;;;14.60;99.90;;;;;;5033189;28;20232;-68
2023/05/27 03:54:20;;;;;;;13.68;4.95;;;15.00;99.90;;;;;;5011546;28;20208;-70
2023/05/27 03:56:46;;;;;;;15.90;5.20;;;15.40;99.90;;;;;;5033497;28;20215;-71
2023/05/27 03:59:14;;;;;;;9.75;4.63;;;15.50;99.90;;;;;;5032817;28;20216;-69
2023/05/27 04:01:41;;;;;;;12.90;4.78;;;15.90;99.90;;;;;;5033035;28;20204;-71
2023/05/27 04:04:06;;;;;;;16.02;4.65;;;16.00;99.90;;;;;;5014547;28;20211;-71
2023/05/27 04:06:33;;;;;;;16.17;4.93;;;15.90;99.90;;;;;;5009235;28;20208;-71
2023/05/27 04:08:58;;;;;;;11.43;4.40;;;16.10;99.90;;;;;;5015456;28;20188;-71
2023/05/27 04:11:27;;;;;;;13.55;5.63;;;16.60;99.90;;;;;;5013589;28;20740;-71
2023/05/27 04:13:52;;;;;;;13.00;4.97;;;16.90;99.90;;;;;;5031857;28;20301;-72
2023/05/27 04:16:18;;;;;;;12.75;4.90;;;17.30;99.90;;;;;;5032312;28;20301;-68
2023/05/27 04:18:48;;;;;;;12.15;4.68;;;17.70;99.90;;;;;;5013967;28;20220;-70
2023/05/27 04:21:15;;;;;;;12.27;5.05;;;18.00;99.90;;;;;;5032455;28;20192;-71
2023/05/27 04:23:41;;;;;;;12.35;4.97;;;18.30;99.90;;;;;;5032224;28;20199;-71
2023/05/27 04:26:06;;;;;;;14.70;4.80;;;18.60;99.90;;;;;;5014691;28;20245;-70
2023/05/27 04:28:34;;;;;;;14.57;4.85;;;18.70;99.90;;;;;;5012642;28;20205;-71
2023/05/27 04:30:59;;;;;;;13.05;4.80;;;19.10;99.90;;;;;;5032338;28;20698;-69
2023/05/27 04:33:26;;;;;;;12.45;4.80;;;19.40;99.90;;;;;;5011548;28;20227;-71
2023/05/27 04:35:53;;;;;;;11.93;4.88;;;19.50;99.90;;;;;;5010409;28;20263;-69
2023/05/27 04:38:20;;;;;;;10.10;5.07;;;19.70;99.90;;;;;;5031964;28;20212;-72
2023/05/27 04:40:52;;;;;;;11.10;4.68;;;20.10;99.90;;;;;;5032083;28;20714;-73
2023/05/27 04:43:21;;;;;;;15.07;4.90;;;20.20;99.90;;;;;;5031553;28;20215;-69
2023/05/27 04:45:47;;;;;;;16.23;4.40;;;20.30;99.90;;;;;;5028016;28;20227;-70
2023/05/27 04:48:13;;;;;;;11.05;4.70;;;20.60;99.90;;;;;;5014046;28;20601;-71
2023/05/27 04:50:40;;;;;;;13.63;4.95;;;20.00;99.90;;;;;;5032122;28;20580;-70
2023/05/27 04:53:06;;;;;;;10.30;4.97;;;20.50;99.90;;;;;;5031237;28;20231;-72
2023/05/27 04:55:32;;;;;;;11.48;4.90;;;20.80;99.90;;;;;;5006245;28;20694;-70
2023/05/27 04:57:58;;;;;;;13.35;5.05;;;20.60;99.90;;;;;;5031875;28;20215;-72
2023/05/27 05:00:36;;;;;;;13.27;5.20;;;20.60;99.90;;;;;;5031672;28;20258;-70
2023/05/27 05:03:03;;;;;;;13.50;5.03;;;21.10;99.90;;;;;;5031846;28;20172;-74
2023/05/27 05:05:29;;;;;;;13.82;4.95;;;21.20;99.90;;;;;;5013064;28;20718;-70
2023/05/27 05:07:54;;;;;;;11.68;5.25;;;21.40;99.90;;;;;;5007853;28;20208;-73
2023/05/27 05:10:20;;;;;;;15.05;4.70;;;20.90;99.90;;;;;;5031562;28;20217;-70
2023/05/27 05:12:46;;;;;;;13.95;5.35;;;21.50;99.90;;;;;;5031222;28;20204;-73
2023/05/27 05:15:12;;;;;;;14.35;5.38;;;22.00;99.90;;;;;;5013614;28;20204;-71
2023/05/27 05:17:38;;;;;;;17.55;5.25;;;22.00;99.90;;;;;;5032258;28;20544;-70
2023/05/27 05:20:05;;;;;;;10.50;4.75;;;22.20;99.90;;;;;;5031322;28;20216;-72
2023/05/27 05:22:31;;;;;;;11.40;5.20;;;22.30;99.90;;;;;;5031271;28;20297;-72
2023/05/27 05:24:57;;;;;;;15.13;5.03;;;22.20;99.90;;;;;;5030603;28;20240;-67
2023/05/27 05:27:23;;;;;;;12.30;4.68;;;22.20;99.90;;;;;;5031067;28;20184;-69
2023/05/27 05:29:48;;;;;;;13.18;5.00;;;22.60;99.90;;;;;;5031696;28;20196;-68
2023/05/27 05:32:14;;;;;;;10.55;4.10;;;22.80;99.90;;;;;;5029555;28;20223;-68
2023/05/27 05:34:40;;;;;;;9.95;4.55;;;23.70;99.90;;;;;;5029877;28;20273;-73
2023/05/27 05:37:06;;;;;;;10.00;4.97;;;23.80;99.90;;;;;;5031346;28;20207;-71
2023/05/27 05:39:32;;;;;;;12.43;5.15;;;24.10;99.90;;;;;;5029246;28;20224;-70
2023/05/27 05:41:57;;;;;;;10.38;4.35;;;24.50;99.90;;;;;;5031494;28;20176;-68
2023/05/27 05:44:25;;;;;;;14.27;5.63;;;24.70;99.90;;;;;;5029231;28;20230;-70
2023/05/27 05:46:51;;;;;;;12.43;4.20;;;24.80;99.90;;;;;;5030036;28;20287;-68
2023/05/27 05:49:18;;;;;;;10.10;4.13;;;25.20;99.90;;;;;;5030511;28;20232;-69
2023/05/27 05:51:44;;;;;;;14.13;5.43;;;25.40;99.90;;;;;;5029990;28;20216;-69
2023/05/27 05:54:10;;;;;;;8.70;4.32;;;25.70;99.90;;;;;;5029005;28;20172;-70
2023/05/27 05:56:35;;;;;;;10.45;4.63;;;26.00;99.90;;;;;;5012105;28;20615;-70
2023/05/27 05:59:01;;;;;;;9.65;4.20;;;25.50;99.90;;;;;;5008021;28;20227;-70
2023/05/27 06:01:27;;;;;;;11.82;4.32;;;26.00;99.90;;;;;;5024521;28;20209;-68
2023/05/27 06:03:56;;;;;;;10.27;3.65;;;26.50;99.90;;;;;;4999723;28;20239;-70
2023/05/27 06:06:22;;;;;;;11.75;3.85;;;26.60;98.70;;;;;;5020622;28;20246;-70
2023/05/27 06:08:47;;;;;;;9.52;3.97;;;25.20;98.00;;;;;;5022825;28;20560;-70
2023/05/27 06:11:13;;;;;;;10.60;3.45;;;25.30;98.70;;;;;;5001893;28;20269;-70
2023/05/27 06:13:39;;;;;;;11.13;3.35;;;26.30;97.60;;;;;;5015830;28;20929;-71
2023/05/27 06:16:05;;;;;;;10.70;3.53;;;25.90;95.80;;;;;;5022169;28;20216;-68
2023/05/27 06:18:31;;;;;;;14.45;3.80;;;25.40;95.50;;;;;;5008467;28;20239;-70
2023/05/27 06:20:56;;;;;;;9.68;3.38;;;26.10;95.00;;;;;;5031071;28;20201;-69
2023/05/27 06:23:22;;;;;;;9.18;3.15;;;26.60;94.20;;;;;;5029651;28;20216;-69
2023/05/27 06:25:47;;;;;;;8.52;3.00;;;26.80;92.50;;;;;;5030159;28;20208;-70
2023/05/27 06:28:13;;;;;;;4.47;2.58;;;27.10;91.20;;;;;;5025694;28;20224;-68
2023/05/27 06:30:39;;;;;;;4.03;1.63;;;26.00;85.70;;;;;;5007318;28;20211;-69
2023/05/27 06:33:05;;;;;;;3.92;1.88;;;25.10;86.80;;;;;;5011447;28;20204;-70
2023/05/27 06:35:31;;;;;;;3.72;1.67;;;26.80;86.20;;;;;;5030282;28;20218;-70
2023/05/27 06:37:58;;;;;;;4.25;2.05;;;25.20;82.70;;;;;;5030088;28;20219;-70
2023/05/27 06:40:24;;;;;;;6.35;1.77;;;24.40;85.10;;;;;;5027377;28;20698;-68
2023/05/27 06:42:49;;;;;;;5.55;2.75;;;24.50;87.90;;;;;;5009203;28;20211;-69
2023/05/27 06:45:15;;;;;;;5.35;3.47;;;25.10;85.00;;;;;;5029055;28;20263;-70
2023/05/27 06:47:41;;;;;;;5.60;2.17;;;25.40;83.00;;;;;;5030471;28;20260;-71
2023/05/27 06:50:07;;;;;;;4.15;1.85;;;25.50;84.80;;;;;;5030372;28;20200;-69
2023/05/27 06:52:32;;;;;;;2.83;1.40;;;26.30;81.40;;;;;;5011827;28;20204;-70
2023/05/27 06:54:58;;;;;;;4.78;1.90;;;27.10;80.30;;;;;;5029312;28;20204;-70
2023/05/27 06:57:24;;;;;;;2.85;1.55;;;27.20;78.40;;;;;;5029232;28;20260;-69
2023/05/27 06:59:49;;;;;;;3.03;1.40;;;28.10;76.80;;;;;;5028995;23;20243;-73
2023/05/27 07:02:15;;;;;;;4.63;1.50;;;27.50;74.40;;;;;;5053297;28;20274;-73
2023/05/27 07:04:41;;;;;;;3.22;1.50;;;25.60;74.40;;;;;;5035367;28;20683;-74
2023/05/27 07:07:07;;;;;;;4.50;1.42;;;24.30;77.50;;;;;;5060259;28;20213;-73
2023/05/27 07:09:32;;;;;;;5.70;2.53;;;24.90;79.00;;;;;;5038852;28;20294;-74
2023/05/27 07:11:58;;;;;;;3.03;1.27;;;25.30;77.00;;;;;;5051091;28;20288;-73
2023/05/27 07:14:24;;;;;;;2.95;1.52;;;26.80;74.40;;;;;;5060598;28;20254;-73
2023/05/27 07:16:50;;;;;;;2.35;1.27;;;27.80;74.10;;;;;;5068641;28;20697;-73
2023/05/27 07:19:16;;;;;;;4.35;1.83;;;28.30;70.60;;;;;;5047416;28;20215;-73
2023/05/27 07:21:41;;;;;;;3.35;1.58;;;28.30;70.60;;;;;;5064094;28;20589;-76
2023/05/27 07:24:07;;;;;;;1.65;1.05;;;28.60;68.70;;;;;;5039836;28;20176;-73
2023/05/27 07:26:33;;;;;;;3.10;1.40;;;27.90;66.70;;;;;;5057317;28;20179;-72
2023/05/27 07:29:00;;;;;;;3.97;2.38;;;27.90;68.00;;;;;;5058638;28;20325;-73
2023/05/27 07:31:27;;;;;;;3.15;1.23;;;27.80;65.90;;;;;;5037440;28;20220;-75
2023/05/27 07:33:52;;;;;;;4.15;1.25;;;27.70;65.10;;;;;;5030929;28;20238;-73
2023/05/27 07:36:18;;;;;;;0.95;0.88;;;27.60;64.40;;;;;;5063298;28;20187;-77
2023/05/27 07:38:44;;;;;;;4.68;2.70;;;27.10;64.80;;;;;;5033381;28;20196;-74
2023/05/27 07:41:10;;;;;;;2.05;1.00;;;27.50;63.80;;;;;;5033636;28;20212;-72
2023/05/27 07:43:36;;;;;;;5.28;2.70;;;28.00;61.70;;;;;;5052789;28;20689;-74
2023/05/27 07:46:02;;;;;;;3.63;1.70;;;28.50;62.90;;;;;;5046267;28;20214;-71
2023/05/27 07:48:28;;;;;;;1.65;1.30;;;28.80;62.70;;;;;;5043576;28;20206;-72
2023/05/27 07:50:54;;;;;;;3.35;1.48;;;29.00;61.00;;;;;;5045887;28;20202;-72
2023/05/27 07:53:20;;;;;;;2.70;1.48;;;28.70;62.10;;;;;;5060383;28;20203;-72
2023/05/27 07:55:46;;;;;;;2.40;1.30;;;28.70;62.30;;;;;;5063031;28;20246;-72
2023/05/27 07:58:11;;;;;;;4.22;1.30;;;27.10;63.60;;;;;;5056490;28;20713;-72
2023/05/27 08:00:37;;;;;;;3.17;1.48;;;27.30;65.40;;;;;;5059774;28;20584;-73
2023/05/27 08:03:03;;;;;;;2.28;1.02;;;27.00;62.70;;;;;;5057784;28;20258;-72
2023/05/27 08:05:28;;;;;;;3.28;0.95;;;27.70;62.20;;;;;;5060802;28;20230;-72
2023/05/27 08:07:54;;;;;;;3.72;1.27;;;27.80;61.00;;;;;;5064556;28;20207;-73
2023/05/27 08:10:20;;;;;;;2.58;1.10;;;28.30;59.30;;;;;;5060922;28;20208;-72
2023/05/27 08:12:46;;;;;;;2.35;1.13;;;28.80;59.80;;;;;;5038683;28;20196;-73
2023/05/27 08:15:11;;;;;;;2.05;1.10;;;29.00;59.40;;;;;;5057018;28;20171;-71
2023/05/27 08:17:37;;;;;;;2.78;1.65;;;28.90;60.00;;;;;;5060246;28;20184;-72
2023/05/27 08:20:04;;;;;;;3.95;1.77;;;29.10;60.00;;;;;;5058996;28;20216;-68
2023/05/27 08:22:29;;;;;;;3.35;2.25;;;29.30;59.70;;;;;;5058298;28;20214;-71
2023/05/27 08:24:55;;;;;;;3.50;1.80;;;29.20;60.10;;;;;;5057072;28;20266;-71
2023/05/27 08:27:40;;;;;;;1.55;1.00;;;29.20;59.10;;;;;;5037738;28;20182;-73
2023/05/27 08:30:08;;;;;;;3.25;1.92;;;28.60;57.70;;;;;;5036592;28;20190;-71
2023/05/27 08:32:33;;;;;;;2.70;1.20;;;28.20;59.00;;;;;;5055588;28;20176;-71
2023/05/27 08:34:59;;;;;;;2.22;1.40;;;27.60;60.20;;;;;;5061781;28;20712;-73
2023/05/27 08:37:25;;;;;;;2.58;1.17;;;27.60;60.90;;;;;;5040760;28;20295;-72
2023/05/27 08:39:51;;;;;;;4.70;2.35;;;27.00;60.00;;;;;;5045278;28;20483;-71
2023/05/27 08:42:16;;;;;;;4.43;2.97;;;26.80;61.40;;;;;;5060356;28;20178;-71
2023/05/27 08:44:42;;;;;;;3.78;2.10;;;27.00;61.30;;;;;;5049125;28;20229;-71
2023/05/27 08:47:08;;;;;;;3.20;1.20;;;26.90;60.80;;;;;;5062525;28;20214;-72
2023/05/27 08:49:33;;;;;;;2.97;1.45;;;26.70;60.70;;;;;;5056278;28;20236;-71
2023/05/27 08:52:01;;;;;;;1.73;1.00;;;26.60;61.80;;;;;;5057552;28;20223;-72
2023/05/27 08:54:29;;;;;;;1.88;1.10;;;24.80;61.30;;;;;;5036739;28;20286;-70
2023/05/27 08:56:57;;;;;;;3.83;1.45;;;24.10;62.80;;;;;;5058432;28;20556;-72
2023/05/27 08:59:24;;;;;;;3.05;1.67;;;23.90;64.20;;;;;;5038809;28;20804;-71
2023/05/27 09:01:51;;;;;;;1.83;0.90;;;24.70;65.30;;;;;;5039955;28;20239;-72
2023/05/27 09:04:16;;;;;;;2.58;1.20;;;25.10;63.90;;;;;;5039470;28;20203;-74
2023/05/27 09:06:42;;;;;;;2.65;1.90;;;25.50;65.00;;;;;;5059713;28;20270;-71
2023/05/27 09:09:12;;;;;;;2.38;1.30;;;25.50;64.20;;;;;;5044653;28;20179;-71
2023/05/27 09:11:39;;;;;;;2.97;1.40;;;25.70;62.80;;;;;;5055186;28;20576;-72
2023/05/27 09:14:05;;;;;;;2.42;0.95;;;25.70;63.10;;;;;;5058074;28;20234;-72
2023/05/27 09:16:31;;;;;;;2.80;1.58;;;25.60;62.30;;;;;;5036505;28;20238;-70
2023/05/27 09:18:57;;;;;;;2.28;1.63;;;25.90;63.70;;;;;;5061331;28;20283;-71
2023/05/27 09:21:26;;;;;;;4.78;3.05;;;25.70;63.20;;;;;;5042155;28;20747;-70
2023/05/27 09:23:56;;;;;;;3.40;1.92;;;25.50;63.70;;;;;;5043878;28;20598;-71
2023/05/27 09:26:23;;;;;;;1.88;1.33;;;24.00;61.40;;;;;;5059813;28;20239;-71
2023/05/27 09:28:49;;;;;;;2.85;2.33;;;23.40;64.10;;;;;;5035267;28;20320;-71
2023/05/27 09:31:15;;;;;;;1.73;1.30;;;22.60;66.80;;;;;;5057823;28;20365;-71
2023/05/27 09:33:41;;;;;;;1.80;1.17;;;22.00;67.20;;;;;;5056076;28;20245;-71
2023/05/27 09:36:08;;;;;;;2.30;1.23;;;22.10;67.60;;;;;;5058609;28;20169;-72
2023/05/27 09:38:35;;;;;;;4.05;1.40;;;23.10;67.40;;;;;;5059294;28;20246;-71
2023/05/27 09:41:02;;;;;;;1.92;1.38;;;23.30;65.10;;;;;;5057206;28;20283;-72
2023/05/27 09:43:29;;;;;;;2.10;1.35;;;23.70;63.90;;;;;;5057640;28;20210;-72
2023/05/27 09:46:03;;;;;;;3.53;1.67;;;23.50;63.60;;;;;;5058778;28;20210;-71
2023/05/27 09:48:32;;;;;;;2.55;1.10;;;23.80;63.90;;;;;;5038576;28;20206;-72
2023/05/27 09:51:01;;;;;;;4.95;1.98;;;23.10;62.90;;;;;;5059569;28;20224;-71
2023/05/27 09:53:28;;;;;;;4.55;1.50;;;23.40;64.70;;;;;;5033218;28;20237;-73
2023/05/27 09:55:54;;;;;;;2.22;1.35;;;22.80;63.10;;;;;;5064287;28;20208;-73
2023/05/27 09:58:22;;;;;;;2.17;1.08;;;21.90;65.00;;;;;;5037355;28;20207;-71
2023/05/27 10:00:49;;;;;;;1.70;1.10;;;21.80;67.00;;;;;;5053923;28;20251;-70
2023/05/27 10:03:16;;;;;;;3.80;1.52;;;22.30;67.70;;;;;;5059725;28;20241;-71
2023/05/27 10:05:44;;;;;;;2.38;1.55;;;22.20;67.00;;;;;;5058712;28;20190;-72
2023/05/27 10:08:11;;;;;;;3.13;1.30;;;21.70;66.50;;;;;;5056013;28;20204;-70
2023/05/27 10:10:37;;;;;;;3.75;1.23;;;21.90;67.60;;;;;;5057986;28;20207;-72
2023/05/27 10:13:03;;;;;;;1.88;1.20;;;21.90;67.50;;;;;;5049722;28;20560;-71
2023/05/27 10:15:31;;;;;;;2.33;1.17;;;21.80;67.30;;;;;;5058339;28;20588;-71
2023/05/27 10:17:59;;;;;;;5.15;2.08;;;22.40;68.00;;;;;;5057519;28;20192;-73
2023/05/27 10:20:34;;;;;;;2.22;2.00;;;22.50;68.40;;;;;;5038197;28;20627;-72
2023/05/27 10:23:13;;;;;;;2.72;1.50;;;22.90;68.90;;;;;;5057679;28;20210;-72
2023/05/27 10:25:40;;;;;;;7.53;2.63;;;23.10;67.30;;;;;;5057626;28;20574;-71
2023/05/27 10:28:06;;;;;;;3.22;1.73;;;23.60;66.80;;;;;;5063050;28;20202;-72
2023/05/27 10:30:45;;;;;;;1.98;1.48;;;23.30;65.90;;;;;;5037653;28;20235;-71
2023/05/27 10:33:12;;;;;;;8.35;3.97;;;22.50;64.90;;;;;;5025394;28;20176;-71
2023/05/27 10:35:42;;;;;;;3.75;2.08;;;22.90;66.00;;;;;;5063176;28;20178;-75
2023/05/27 10:38:17;;;;;;;2.38;1.60;;;21.80;66.00;;;;;;5043195;28;20195;-72
2023/05/27 10:40:45;;;;;;;3.08;1.73;;;21.40;66.50;;;;;;5058823;28;20289;-72
2023/05/27 10:43:18;;;;;;;3.03;1.60;;;21.70;68.00;;;;;;5059865;28;20238;-71
2023/05/27 10:45:48;;;;;;;3.53;2.42;;;21.70;67.10;;;;;;5039972;28;20217;-73
2023/05/27 10:48:19;;;;;;;3.83;2.50;;;21.80;67.10;;;;;;5035275;28;20183;-71
2023/05/27 10:50:51;;;;;;;2.65;1.65;;;22.20;67.40;;;;;;5044818;28;20192;-72
2023/05/27 10:53:21;;;;;;;4.38;3.05;;;22.60;65.90;;;;;;5036577;28;20222;-72
2023/05/27 10:55:50;;;;;;;3.40;1.90;;;22.90;66.00;;;;;;5053519;28;20210;-72
2023/05/27 10:58:20;;;;;;;2.78;2.30;;;22.80;64.90;;;;;;5040729;28;20195;-72
2023/05/27 11:00:53;;;;;;;5.38;1.58;;;22.70;64.00;;;;;;5051926;28;20873;-71
2023/05/27 11:03:27;;;;;;;4.75;2.30;;;22.50;65.90;;;;;;5053974;28;20187;-71
2023/05/27 11:05:58;;;;;;;2.58;1.90;;;23.00;66.00;;;;;;5059484;28;20186;-71
2023/05/27 11:08:24;;;;;;;4.82;3.00;;;22.90;66.30;;;;;;5058851;28;20294;-71
2023/05/27 11:10:50;;;;;;;1.67;1.52;;;22.80;66.80;;;;;;5053173;28;20638;-71
2023/05/27 11:13:15;;;;;;;2.65;1.58;;;23.00;64.70;;;;;;5059302;28;20289;-73
2023/05/27 11:15:41;;;;;;;3.67;2.45;;;22.60;65.00;;;;;;5040032;28;20639;-71
2023/05/27 11:18:08;;;;;;;2.83;1.80;;;22.60;66.10;;;;;;5060393;28;20174;-72
2023/05/27 11:20:37;;;;;;;4.05;2.63;;;22.30;65.50;;;;;;5057305;28;20636;-71
2023/05/27 11:23:03;;;;;;;7.28;4.15;;;22.60;66.60;;;;;;5035665;28;20199;-72
2023/05/27 11:25:29;;;;;;;2.90;1.88;;;22.70;65.80;;;;;;5053764;28;20314;-71
2023/05/27 11:27:55;;;;;;;4.90;1.73;;;22.30;65.40;;;;;;5050876;28;20200;-72
2023/05/27 11:30:24;;;;;;;2.17;1.80;;;22.20;65.40;;;;;;5050639;28;20292;-72
2023/05/27 11:32:50;;;;;;;2.85;1.50;;;22.60;66.00;;;;;;5052548;28;20200;-71
2023/05/27 11:35:17;;;;;;;4.78;2.00;;;22.80;65.70;;;;;;5039156;28;20658;-72
2023/05/27 11:37:52;;;;;;;2.92;1.75;;;22.80;66.40;;;;;;5055955;28;20222;-72
2023/05/27 11:40:18;;;;;;;2.78;1.83;;;22.90;66.80;;;;;;5049180;28;20608;-71
2023/05/27 11:42:48;;;;;;;2.05;1.63;;;22.90;67.30;;;;;;5037906;28;20211;-72
2023/05/27 11:45:17;;;;;;;2.85;1.80;;;23.10;65.60;;;;;;5039114;28;20270;-72
2023/05/27 11:47:44;;;;;;;2.05;1.60;;;23.10;65.60;;;;;;5039421;28;20203;-74
2023/05/27 11:50:10;;;;;;;1.58;1.48;;;23.10;65.90;;;;;;5061301;28;20776;-70
2023/05/27 11:52:54;;;;;;;1.58;1.45;;;23.20;66.00;;;;;;5057555;28;20239;-72
2023/05/27 11:55:20;;;;;;;3.63;2.30;;;22.80;65.10;;;;;;5040000;28;20214;-73
2023/05/27 11:57:45;;;;;;;3.40;1.95;;;22.80;67.70;;;;;;5057141;28;20211;-74
2023/05/27 12:00:12;;;;;;;4.55;1.73;;;22.60;69.20;;;;;;5060527;28;20258;-73
2023/05/27 12:02:37;;;;;;;3.70;2.50;;;22.30;70.30;;;;;;5059291;28;20183;-71
2023/05/27 12:05:06;;;;;;;2.58;1.77;;;22.50;69.20;;;;;;5056847;28;20577;-72
2023/05/27 12:07:32;;;;;;;3.20;2.05;;;22.50;69.80;;;;;;5039471;28;20693;-71
2023/05/27 12:09:57;;;;;;;3.65;2.28;;;22.50;70.90;;;;;;5033524;28;20237;-71
2023/05/27 12:12:23;;;;;;;3.33;1.90;;;22.40;69.50;;;;;;5043279;28;20214;-70
2023/05/27 12:14:49;;;;;;;5.18;2.10;;;22.60;69.40;;;;;;5056496;28;20183;-72
2023/05/27 12:17:15;;;;;;;3.38;2.08;;;22.80;69.50;;;;;;5042596;28;20214;-71
2023/05/27 12:19:40;;;;;;;4.95;2.53;;;23.00;69.00;;;;;;5056867;28;20596;-70
2023/05/27 12:22:06;;;;;;;2.72;2.20;;;22.60;68.90;;;;;;5061067;28;20210;-72
2023/05/27 12:24:31;;;;;;;4.78;3.80;;;22.50;70.30;;;;;;5060016;28;20208;-72
2023/05/27 12:26:57;;;;;;;2.72;2.10;;;22.60;70.70;;;;;;5059184;28;20184;-73
2023/05/27 12:29:24;;;;;;;3.83;1.70;;;21.90;70.90;;;;;;5062145;28;20206;-71
2023/05/27 12:31:50;;;;;;;3.78;2.88;;;22.00;71.50;;;;;;5059335;28;20313;-72
2023/05/27 12:34:16;;;;;;;2.53;1.52;;;22.00;71.90;;;;;;5043594;28;20199;-72
2023/05/27 12:36:42;;;;;;;2.60;1.83;;;22.10;72.30;;;;;;5042243;28;20257;-72
2023/05/27 12:39:07;;;;;;;5.32;2.05;;;22.20;72.60;;;;;;5064132;28;20277;-71
2023/05/27 12:41:33;;;;;;;2.88;2.05;;;22.40;72.80;;;;;;5056677;28;20195;-71